sensor_id;sensor_type;location;lat;lon;timestamp;P1;durP1;ratioP1;P2;durP2;ratioP2
76576;SDS011;65441;44.748;37.600;2023-06-22T00:01:24;10.18;;;3.45;;
76576;SDS011;65441;44.748;37.600;2023-06-22T00:03:53;7.57;;;2.92;;
76576;SDS011;65441;44.748;37.600;2023-06-22T00:06:22;8.23;;;2.80;;
76576;SDS011;65441;44.748;37.600;2023-06-22T00:08:51;8.15;;;3.00;;
76576;SDS011;65441;44.748;37.600;2023-06-22T00:11:21;7.43;;;3.13;;
76576;SDS011;65441;44.748;37.600;2023-06-22T00:13:50;8.95;;;3.13;;
76576;SDS011;65441;44.748;37.600;2023-06-22T00:16:19;6.45;;;3.35;;
76576;SDS011;65441;44.748;37.600;2023-06-22T00:18:48;7.30;;;3.10;;
76576;SDS011;65441;44.748;37.600;2023-06-22T00:21:16;7.78;;;3.50;;
76576;SDS011;65441;44.748;37.600;2023-06-22T00:23:47;7.93;;;3.40;;
76576;SDS011;65441;44.748;37.600;2023-06-22T00:26:15;8.07;;;3.30;;
76576;SDS011;65441;44.748;37.600;2023-06-22T00:28:46;9.82;;;3.42;;
76576;SDS011;65441;44.748;37.600;2023-06-22T00:31:15;8.68;;;2.90;;
76576;SDS011;65441;44.748;37.600;2023-06-22T00:33:44;6.93;;;2.90;;
76576;SDS011;65441;44.748;37.600;2023-06-22T00:36:13;6.68;;;2.80;;
76576;SDS011;65441;44.748;37.600;2023-06-22T00:38:43;6.25;;;2.83;;
76576;SDS011;65441;44.748;37.600;2023-06-22T00:41:11;8.88;;;3.20;;
76576;SDS011;65441;44.748;37.600;2023-06-22T00:43:42;6.40;;;2.72;;
76576;SDS011;65441;44.748;37.600;2023-06-22T00:46:12;7.93;;;3.10;;
76576;SDS011;65441;44.748;37.600;2023-06-22T00:48:41;6.55;;;2.60;;
76576;SDS011;65441;44.748;37.600;2023-06-22T00:51:10;8.30;;;3.00;;
76576;SDS011;65441;44.748;37.600;2023-06-22T00:53:39;9.05;;;3.60;;
76576;SDS011;65441;44.748;37.600;2023-06-22T00:56:10;8.00;;;3.13;;
76576;SDS011;65441;44.748;37.600;2023-06-22T00:58:39;6.05;;;3.00;;
76576;SDS011;65441;44.748;37.600;2023-06-22T01:01:09;6.00;;;2.63;;
76576;SDS011;65441;44.748;37.600;2023-06-22T01:03:40;6.32;;;3.05;;
76576;SDS011;65441;44.748;37.600;2023-06-22T01:06:09;9.32;;;3.65;;
76576;SDS011;65441;44.748;37.600;2023-06-22T01:11:16;6.80;;;3.00;;
76576;SDS011;65441;44.748;37.600;2023-06-22T01:13:50;11.55;;;3.58;;
76576;SDS011;65441;44.748;37.600;2023-06-22T01:16:29;7.32;;;3.40;;
76576;SDS011;65441;44.748;37.600;2023-06-22T01:19:01;8.80;;;3.33;;
76576;SDS011;65441;44.748;37.600;2023-06-22T01:21:38;8.52;;;4.63;;
76576;SDS011;65441;44.748;37.600;2023-06-22T01:24:10;8.50;;;3.90;;
76576;SDS011;65441;44.748;37.600;2023-06-22T01:26:49;11.60;;;4.53;;
76576;SDS011;65441;44.748;37.600;2023-06-22T01:29:29;9.48;;;3.88;;
76576;SDS011;65441;44.748;37.600;2023-06-22T01:32:00;9.65;;;4.43;;
76576;SDS011;65441;44.748;37.600;2023-06-22T01:34:31;9.70;;;3.88;;
76576;SDS011;65441;44.748;37.600;2023-06-22T01:37:04;8.50;;;4.13;;
76576;SDS011;65441;44.748;37.600;2023-06-22T01:39:34;7.35;;;3.70;;
76576;SDS011;65441;44.748;37.600;2023-06-22T01:42:03;7.40;;;3.88;;
76576;SDS011;65441;44.748;37.600;2023-06-22T01:44:35;8.57;;;4.10;;
76576;SDS011;65441;44.748;37.600;2023-06-22T01:47:07;10.25;;;5.03;;
76576;SDS011;65441;44.748;37.600;2023-06-22T01:49:36;8.45;;;4.07;;
76576;SDS011;65441;44.748;37.600;2023-06-22T01:52:06;8.23;;;3.97;;
76576;SDS011;65441;44.748;37.600;2023-06-22T01:54:36;9.38;;;3.90;;
76576;SDS011;65441;44.748;37.600;2023-06-22T01:57:06;9.35;;;4.25;;
76576;SDS011;65441;44.748;37.600;2023-06-22T01:59:39;10.10;;;4.28;;
76576;SDS011;65441;44.748;37.600;2023-06-22T02:02:17;12.48;;;4.70;;
76576;SDS011;65441;44.748;37.600;2023-06-22T02:04:54;9.93;;;4.32;;
76576;SDS011;65441;44.748;37.600;2023-06-22T02:07:28;9.75;;;3.97;;
76576;SDS011;65441;44.748;37.600;2023-06-22T02:10:03;11.30;;;4.50;;
76576;SDS011;65441;44.748;37.600;2023-06-22T02:12:35;8.75;;;4.03;;
76576;SDS011;65441;44.748;37.600;2023-06-22T02:15:07;9.98;;;4.45;;
76576;SDS011;65441;44.748;37.600;2023-06-22T02:17:39;10.45;;;4.35;;
76576;SDS011;65441;44.748;37.600;2023-06-22T02:20:12;7.75;;;4.00;;
76576;SDS011;65441;44.748;37.600;2023-06-22T02:22:42;9.82;;;4.30;;
76576;SDS011;65441;44.748;37.600;2023-06-22T02:25:11;11.75;;;4.25;;
76576;SDS011;65441;44.748;37.600;2023-06-22T02:27:40;9.90;;;3.70;;
76576;SDS011;65441;44.748;37.600;2023-06-22T02:30:11;10.73;;;4.25;;
76576;SDS011;65441;44.748;37.600;2023-06-22T02:32:41;11.88;;;4.93;;
76576;SDS011;65441;44.748;37.600;2023-06-22T02:35:10;11.88;;;4.00;;
76576;SDS011;65441;44.748;37.600;2023-06-22T02:40:31;9.65;;;4.15;;
76576;SDS011;65441;44.748;37.600;2023-06-22T02:43:00;10.70;;;4.35;;
76576;SDS011;65441;44.748;37.600;2023-06-22T02:45:32;9.68;;;4.15;;
76576;SDS011;65441;44.748;37.600;2023-06-22T02:48:01;13.98;;;4.25;;
76576;SDS011;65441;44.748;37.600;2023-06-22T02:50:30;7.93;;;3.75;;
76576;SDS011;65441;44.748;37.600;2023-06-22T02:52:59;10.23;;;3.88;;
76576;SDS011;65441;44.748;37.600;2023-06-22T02:55:31;12.30;;;3.90;;
76576;SDS011;65441;44.748;37.600;2023-06-22T02:58:00;8.27;;;4.05;;
76576;SDS011;65441;44.748;37.600;2023-06-22T03:03:03;8.70;;;4.50;;
76576;SDS011;65441;44.748;37.600;2023-06-22T03:05:32;9.50;;;4.90;;
76576;SDS011;65441;44.748;37.600;2023-06-22T03:08:02;10.32;;;4.43;;
76576;SDS011;65441;44.748;37.600;2023-06-22T03:10:34;9.57;;;3.88;;
76576;SDS011;65441;44.748;37.600;2023-06-22T03:13:02;9.98;;;3.88;;
76576;SDS011;65441;44.748;37.600;2023-06-22T03:15:32;14.88;;;4.80;;
76576;SDS011;65441;44.748;37.600;2023-06-22T03:18:03;7.72;;;3.90;;
76576;SDS011;65441;44.748;37.600;2023-06-22T03:20:32;9.93;;;4.65;;
76576;SDS011;65441;44.748;37.600;2023-06-22T03:23:01;11.80;;;4.50;;
76576;SDS011;65441;44.748;37.600;2023-06-22T03:25:29;12.60;;;4.60;;
76576;SDS011;65441;44.748;37.600;2023-06-22T03:28:01;8.68;;;4.18;;
76576;SDS011;65441;44.748;37.600;2023-06-22T03:30:29;11.05;;;4.68;;
76576;SDS011;65441;44.748;37.600;2023-06-22T03:33:02;11.85;;;4.22;;
76576;SDS011;65441;44.748;37.600;2023-06-22T03:35:34;7.45;;;3.80;;
76576;SDS011;65441;44.748;37.600;2023-06-22T03:38:05;9.32;;;3.53;;
76576;SDS011;65441;44.748;37.600;2023-06-22T03:40:34;8.90;;;4.20;;
76576;SDS011;65441;44.748;37.600;2023-06-22T03:43:03;8.52;;;4.25;;
76576;SDS011;65441;44.748;37.600;2023-06-22T03:45:32;17.83;;;4.47;;
76576;SDS011;65441;44.748;37.600;2023-06-22T03:48:03;12.93;;;4.75;;
76576;SDS011;65441;44.748;37.600;2023-06-22T03:50:37;16.77;;;5.68;;
76576;SDS011;65441;44.748;37.600;2023-06-22T03:53:06;12.32;;;4.28;;
76576;SDS011;65441;44.748;37.600;2023-06-22T03:55:35;10.60;;;4.43;;
76576;SDS011;65441;44.748;37.600;2023-06-22T03:58:04;16.23;;;4.90;;
76576;SDS011;65441;44.748;37.600;2023-06-22T04:00:33;12.07;;;4.75;;
76576;SDS011;65441;44.748;37.600;2023-06-22T04:03:03;10.05;;;4.53;;
76576;SDS011;65441;44.748;37.600;2023-06-22T04:05:34;15.80;;;5.25;;
76576;SDS011;65441;44.748;37.600;2023-06-22T04:08:03;11.40;;;4.75;;
76576;SDS011;65441;44.748;37.600;2023-06-22T04:10:35;11.95;;;4.53;;
76576;SDS011;65441;44.748;37.600;2023-06-22T04:13:04;12.35;;;4.70;;
76576;SDS011;65441;44.748;37.600;2023-06-22T04:15:33;14.27;;;5.15;;
76576;SDS011;65441;44.748;37.600;2023-06-22T04:18:06;11.43;;;5.13;;
76576;SDS011;65441;44.748;37.600;2023-06-22T04:20:38;12.88;;;4.82;;
76576;SDS011;65441;44.748;37.600;2023-06-22T04:23:13;12.38;;;4.93;;
76576;SDS011;65441;44.748;37.600;2023-06-22T04:25:44;12.38;;;4.80;;
76576;SDS011;65441;44.748;37.600;2023-06-22T04:28:13;12.40;;;4.57;;
76576;SDS011;65441;44.748;37.600;2023-06-22T04:30:42;10.25;;;4.82;;
76576;SDS011;65441;44.748;37.600;2023-06-22T04:33:15;11.13;;;4.65;;
76576;SDS011;65441;44.748;37.600;2023-06-22T04:35:48;10.88;;;4.53;;
76576;SDS011;65441;44.748;37.600;2023-06-22T04:38:17;9.93;;;4.95;;
76576;SDS011;65441;44.748;37.600;2023-06-22T04:40:52;12.48;;;4.90;;
76576;SDS011;65441;44.748;37.600;2023-06-22T04:43:24;12.05;;;4.78;;
76576;SDS011;65441;44.748;37.600;2023-06-22T04:45:57;9.07;;;4.50;;
76576;SDS011;65441;44.748;37.600;2023-06-22T04:48:33;13.38;;;5.00;;
76576;SDS011;65441;44.748;37.600;2023-06-22T04:51:05;11.73;;;4.60;;
76576;SDS011;65441;44.748;37.600;2023-06-22T04:53:35;10.70;;;4.63;;
76576;SDS011;65441;44.748;37.600;2023-06-22T04:56:14;11.55;;;4.65;;
76576;SDS011;65441;44.748;37.600;2023-06-22T04:58:50;10.95;;;4.55;;
76576;SDS011;65441;44.748;37.600;2023-06-22T05:01:24;14.95;;;4.30;;
76576;SDS011;65441;44.748;37.600;2023-06-22T05:03:58;13.02;;;4.40;;
76576;SDS011;65441;44.748;37.600;2023-06-22T05:06:34;8.73;;;4.15;;
76576;SDS011;65441;44.748;37.600;2023-06-22T05:09:09;12.50;;;4.68;;
76576;SDS011;65441;44.748;37.600;2023-06-22T05:11:45;8.45;;;4.55;;
76576;SDS011;65441;44.748;37.600;2023-06-22T05:14:23;9.10;;;4.25;;
76576;SDS011;65441;44.748;37.600;2023-06-22T05:16:52;11.13;;;4.05;;
76576;SDS011;65441;44.748;37.600;2023-06-22T05:19:27;14.18;;;4.00;;
76576;SDS011;65441;44.748;37.600;2023-06-22T05:22:26;9.68;;;4.40;;
76576;SDS011;65441;44.748;37.600;2023-06-22T05:24:59;10.70;;;4.40;;
76576;SDS011;65441;44.748;37.600;2023-06-22T05:27:33;13.63;;;4.30;;
76576;SDS011;65441;44.748;37.600;2023-06-22T05:30:11;11.23;;;4.22;;
76576;SDS011;65441;44.748;37.600;2023-06-22T05:32:54;9.48;;;4.05;;
76576;SDS011;65441;44.748;37.600;2023-06-22T05:35:27;9.27;;;4.03;;
76576;SDS011;65441;44.748;37.600;2023-06-22T05:38:34;9.13;;;4.28;;
76576;SDS011;65441;44.748;37.600;2023-06-22T05:41:12;9.48;;;4.05;;
76576;SDS011;65441;44.748;37.600;2023-06-22T05:43:47;9.68;;;4.00;;
76576;SDS011;65441;44.748;37.600;2023-06-22T05:46:20;7.72;;;3.83;;
76576;SDS011;65441;44.748;37.600;2023-06-22T05:48:54;9.65;;;3.75;;
76576;SDS011;65441;44.748;37.600;2023-06-22T05:51:29;9.27;;;3.88;;
76576;SDS011;65441;44.748;37.600;2023-06-22T05:54:08;8.60;;;3.50;;
76576;SDS011;65441;44.748;37.600;2023-06-22T05:56:45;9.75;;;3.83;;
76576;SDS011;65441;44.748;37.600;2023-06-22T05:59:25;10.50;;;4.13;;
76576;SDS011;65441;44.748;37.600;2023-06-22T06:01:56;8.23;;;3.75;;
76576;SDS011;65441;44.748;37.600;2023-06-22T06:04:29;9.18;;;3.90;;
76576;SDS011;65441;44.748;37.600;2023-06-22T06:07:25;9.07;;;4.10;;
76576;SDS011;65441;44.748;37.600;2023-06-22T06:10:08;11.38;;;3.92;;
76576;SDS011;65441;44.748;37.600;2023-06-22T06:12:40;7.72;;;3.72;;
76576;SDS011;65441;44.748;37.600;2023-06-22T06:15:19;8.48;;;4.22;;
76576;SDS011;65441;44.748;37.600;2023-06-22T06:18:25;8.98;;;3.58;;
76576;SDS011;65441;44.748;37.600;2023-06-22T06:21:22;13.35;;;4.28;;
76576;SDS011;65441;44.748;37.600;2023-06-22T06:23:55;7.63;;;3.85;;
76576;SDS011;65441;44.748;37.600;2023-06-22T06:27:34;13.45;;;3.72;;
76576;SDS011;65441;44.748;37.600;2023-06-22T06:30:14;9.02;;;3.85;;
76576;SDS011;65441;44.748;37.600;2023-06-22T06:32:51;7.63;;;3.53;;
76576;SDS011;65441;44.748;37.600;2023-06-22T06:35:35;9.07;;;4.18;;
76576;SDS011;65441;44.748;37.600;2023-06-22T06:38:06;6.75;;;3.60;;
76576;SDS011;65441;44.748;37.600;2023-06-22T06:40:46;10.98;;;3.42;;
76576;SDS011;65441;44.748;37.600;2023-06-22T06:43:20;6.45;;;3.70;;
76576;SDS011;65441;44.748;37.600;2023-06-22T06:48:37;9.77;;;3.60;;
76576;SDS011;65441;44.748;37.600;2023-06-22T06:51:12;11.45;;;4.00;;
76576;SDS011;65441;44.748;37.600;2023-06-22T06:54:09;8.48;;;3.22;;
76576;SDS011;65441;44.748;37.600;2023-06-22T06:56:42;15.32;;;3.67;;
76576;SDS011;65441;44.748;37.600;2023-06-22T06:59:40;8.07;;;3.53;;
76576;SDS011;65441;44.748;37.600;2023-06-22T07:02:22;12.23;;;3.60;;
76576;SDS011;65441;44.748;37.600;2023-06-22T07:04:54;13.07;;;3.55;;
76576;SDS011;65441;44.748;37.600;2023-06-22T07:07:28;5.95;;;3.10;;
76576;SDS011;65441;44.748;37.600;2023-06-22T07:10:20;10.30;;;3.50;;
76576;SDS011;65441;44.748;37.600;2023-06-22T07:12:52;8.60;;;3.85;;
76576;SDS011;65441;44.748;37.600;2023-06-22T07:16:03;7.70;;;3.47;;
76576;SDS011;65441;44.748;37.600;2023-06-22T07:18:14;8.68;;;3.53;;
76576;SDS011;65441;44.748;37.600;2023-06-22T07:20:43;6.10;;;3.00;;
76576;SDS011;65441;44.748;37.600;2023-06-22T07:23:29;10.80;;;3.53;;
76576;SDS011;65441;44.748;37.600;2023-06-22T07:26:28;7.90;;;3.20;;
76576;SDS011;65441;44.748;37.600;2023-06-22T07:29:25;8.00;;;3.38;;
76576;SDS011;65441;44.748;37.600;2023-06-22T07:32:02;7.28;;;3.03;;
76576;SDS011;65441;44.748;37.600;2023-06-22T07:34:33;7.55;;;3.30;;
76576;SDS011;65441;44.748;37.600;2023-06-22T07:37:05;16.13;;;3.97;;
76576;SDS011;65441;44.748;37.600;2023-06-22T07:41:34;11.35;;;3.55;;
76576;SDS011;65441;44.748;37.600;2023-06-22T07:43:47;7.82;;;3.55;;
76576;SDS011;65441;44.748;37.600;2023-06-22T07:46:40;8.35;;;3.22;;
76576;SDS011;65441;44.748;37.600;2023-06-22T07:49:11;8.10;;;3.30;;
76576;SDS011;65441;44.748;37.600;2023-06-22T07:53:08;6.95;;;3.13;;
76576;SDS011;65441;44.748;37.600;2023-06-22T07:55:02;9.55;;;3.00;;
76576;SDS011;65441;44.748;37.600;2023-06-22T07:57:44;10.32;;;2.95;;
76576;SDS011;65441;44.748;37.600;2023-06-22T08:00:33;11.63;;;3.17;;
76576;SDS011;65441;44.748;37.600;2023-06-22T08:10:08;8.48;;;3.47;;
76576;SDS011;65441;44.748;37.600;2023-06-22T08:12:33;7.30;;;3.20;;
76576;SDS011;65441;44.748;37.600;2023-06-22T08:15:09;8.90;;;3.70;;
76576;SDS011;65441;44.748;37.600;2023-06-22T08:17:45;9.90;;;3.75;;
76576;SDS011;65441;44.748;37.600;2023-06-22T08:20:22;9.23;;;3.28;;
76576;SDS011;65441;44.748;37.600;2023-06-22T08:23:31;9.10;;;3.20;;
76576;SDS011;65441;44.748;37.600;2023-06-22T08:26:16;10.07;;;3.60;;
76576;SDS011;65441;44.748;37.600;2023-06-22T08:29:06;7.47;;;3.38;;
76576;SDS011;65441;44.748;37.600;2023-06-22T08:33:01;7.82;;;3.50;;
76576;SDS011;65441;44.748;37.600;2023-06-22T08:38:05;10.15;;;3.53;;
76576;SDS011;65441;44.748;37.600;2023-06-22T08:40:53;7.40;;;3.40;;
76576;SDS011;65441;44.748;37.600;2023-06-22T08:43:58;7.60;;;3.40;;
76576;SDS011;65441;44.748;37.600;2023-06-22T08:46:49;8.68;;;3.85;;
76576;SDS011;65441;44.748;37.600;2023-06-22T08:49:46;7.60;;;3.45;;
76576;SDS011;65441;44.748;37.600;2023-06-22T08:53:35;7.10;;;3.30;;
76576;SDS011;65441;44.748;37.600;2023-06-22T08:56:05;10.65;;;3.47;;
76576;SDS011;65441;44.748;37.600;2023-06-22T09:00:15;10.90;;;3.53;;
76576;SDS011;65441;44.748;37.600;2023-06-22T09:05:16;9.63;;;3.75;;
76576;SDS011;65441;44.748;37.600;2023-06-22T09:08:10;11.80;;;3.90;;
76576;SDS011;65441;44.748;37.600;2023-06-22T09:11:07;11.25;;;3.88;;
76576;SDS011;65441;44.748;37.600;2023-06-22T09:13:44;7.53;;;3.92;;
76576;SDS011;65441;44.748;37.600;2023-06-22T09:16:23;11.23;;;4.22;;
76576;SDS011;65441;44.748;37.600;2023-06-22T09:22:20;12.07;;;3.85;;
76576;SDS011;65441;44.748;37.600;2023-06-22T09:25:38;10.60;;;4.53;;
76576;SDS011;65441;44.748;37.600;2023-06-22T09:28:32;12.90;;;4.30;;
76576;SDS011;65441;44.748;37.600;2023-06-22T09:31:23;9.80;;;4.32;;
76576;SDS011;65441;44.748;37.600;2023-06-22T09:34:25;9.98;;;4.15;;
76576;SDS011;65441;44.748;37.600;2023-06-22T09:37:12;9.13;;;4.05;;
76576;SDS011;65441;44.748;37.600;2023-06-22T09:40:14;13.43;;;3.97;;
76576;SDS011;65441;44.748;37.600;2023-06-22T09:42:56;11.52;;;4.32;;
76576;SDS011;65441;44.748;37.600;2023-06-22T09:45:28;10.05;;;4.70;;
76576;SDS011;65441;44.748;37.600;2023-06-22T09:51:10;8.45;;;4.15;;
76576;SDS011;65441;44.748;37.600;2023-06-22T09:54:51;9.77;;;4.20;;
76576;SDS011;65441;44.748;37.600;2023-06-22T09:56:59;12.43;;;4.70;;
76576;SDS011;65441;44.748;37.600;2023-06-22T10:01:09;24.88;;;5.18;;
76576;SDS011;65441;44.748;37.600;2023-06-22T10:03:01;8.95;;;4.25;;
76576;SDS011;65441;44.748;37.600;2023-06-22T10:06:11;9.38;;;4.35;;
76576;SDS011;65441;44.748;37.600;2023-06-22T10:09:07;7.32;;;3.88;;
76576;SDS011;65441;44.748;37.600;2023-06-22T10:12:02;8.05;;;3.80;;
76576;SDS011;65441;44.748;37.600;2023-06-22T10:15:05;8.75;;;3.70;;
76576;SDS011;65441;44.748;37.600;2023-06-22T10:17:59;9.95;;;3.60;;
76576;SDS011;65441;44.748;37.600;2023-06-22T10:20:40;8.80;;;3.35;;
76576;SDS011;65441;44.748;37.600;2023-06-22T10:23:33;7.18;;;3.53;;
76576;SDS011;65441;44.748;37.600;2023-06-22T10:26:10;8.23;;;3.60;;
76576;SDS011;65441;44.748;37.600;2023-06-22T10:29:13;7.78;;;3.95;;
76576;SDS011;65441;44.748;37.600;2023-06-22T10:32:05;6.82;;;3.40;;
76576;SDS011;65441;44.748;37.600;2023-06-22T10:34:46;11.68;;;3.72;;
76576;SDS011;65441;44.748;37.600;2023-06-22T10:37:22;8.00;;;3.60;;
76576;SDS011;65441;44.748;37.600;2023-06-22T10:40:08;9.10;;;3.75;;
76576;SDS011;65441;44.748;37.600;2023-06-22T10:43:48;12.13;;;3.70;;
76576;SDS011;65441;44.748;37.600;2023-06-22T10:46:18;11.45;;;3.40;;
76576;SDS011;65441;44.748;37.600;2023-06-22T10:49:19;11.45;;;3.50;;
76576;SDS011;65441;44.748;37.600;2023-06-22T10:56:12;8.95;;;3.35;;
76576;SDS011;65441;44.748;37.600;2023-06-22T10:58:22;9.15;;;3.38;;
76576;SDS011;65441;44.748;37.600;2023-06-22T11:00:55;9.65;;;3.25;;
76576;SDS011;65441;44.748;37.600;2023-06-22T11:04:04;6.88;;;3.03;;
76576;SDS011;65441;44.748;37.600;2023-06-22T11:07:02;7.25;;;3.17;;
76576;SDS011;65441;44.748;37.600;2023-06-22T11:12:56;7.95;;;3.67;;
76576;SDS011;65441;44.748;37.600;2023-06-22T11:15:55;8.02;;;3.30;;
76576;SDS011;65441;44.748;37.600;2023-06-22T11:18:30;10.13;;;3.15;;
76576;SDS011;65441;44.748;37.600;2023-06-22T11:21:48;8.32;;;3.17;;
76576;SDS011;65441;44.748;37.600;2023-06-22T11:24:11;9.43;;;3.35;;
76576;SDS011;65441;44.748;37.600;2023-06-22T11:26:54;6.25;;;3.38;;
76576;SDS011;65441;44.748;37.600;2023-06-22T11:29:54;7.65;;;3.15;;
76576;SDS011;65441;44.748;37.600;2023-06-22T11:33:06;8.48;;;3.55;;
76576;SDS011;65441;44.748;37.600;2023-06-22T11:36:02;6.88;;;3.35;;
76576;SDS011;65441;44.748;37.600;2023-06-22T11:38:40;8.65;;;2.95;;
76576;SDS011;65441;44.748;37.600;2023-06-22T11:41:35;6.43;;;3.45;;
76576;SDS011;65441;44.748;37.600;2023-06-22T11:44:29;8.98;;;3.40;;
76576;SDS011;65441;44.748;37.600;2023-06-22T11:47:05;9.57;;;3.20;;
76576;SDS011;65441;44.748;37.600;2023-06-22T11:53:18;8.50;;;3.40;;
76576;SDS011;65441;44.748;37.600;2023-06-22T11:55:45;6.15;;;2.90;;
76576;SDS011;65441;44.748;37.600;2023-06-22T11:59:19;8.93;;;2.92;;
76576;SDS011;65441;44.748;37.600;2023-06-22T12:04:14;7.00;;;3.10;;
76576;SDS011;65441;44.748;37.600;2023-06-22T12:07:01;6.55;;;3.25;;
76576;SDS011;65441;44.748;37.600;2023-06-22T12:09:32;8.35;;;3.00;;
76576;SDS011;65441;44.748;37.600;2023-06-22T12:12:09;6.85;;;3.08;;
76576;SDS011;65441;44.748;37.600;2023-06-22T12:14:42;7.55;;;3.17;;
76576;SDS011;65441;44.748;37.600;2023-06-22T12:17:39;6.75;;;3.10;;
76576;SDS011;65441;44.748;37.600;2023-06-22T12:20:18;8.63;;;3.08;;
76576;SDS011;65441;44.748;37.600;2023-06-22T12:23:17;8.40;;;3.10;;
76576;SDS011;65441;44.748;37.600;2023-06-22T12:26:06;8.50;;;3.00;;
76576;SDS011;65441;44.748;37.600;2023-06-22T12:28:43;6.50;;;3.00;;
76576;SDS011;65441;44.748;37.600;2023-06-22T12:32:06;7.05;;;3.17;;
76576;SDS011;65441;44.748;37.600;2023-06-22T12:35:46;5.93;;;2.78;;
76576;SDS011;65441;44.748;37.600;2023-06-22T12:37:54;7.82;;;3.10;;
76576;SDS011;65441;44.748;37.600;2023-06-22T12:40:26;10.88;;;3.20;;
76576;SDS011;65441;44.748;37.600;2023-06-22T12:42:57;7.43;;;3.00;;
76576;SDS011;65441;44.748;37.600;2023-06-22T12:45:31;6.15;;;3.10;;
76576;SDS011;65441;44.748;37.600;2023-06-22T12:49:16;8.30;;;3.38;;
76576;SDS011;65441;44.748;37.600;2023-06-22T12:51:42;5.88;;;2.90;;
76576;SDS011;65441;44.748;37.600;2023-06-22T12:54:18;6.43;;;3.40;;
76576;SDS011;65441;44.748;37.600;2023-06-22T12:57:18;6.47;;;3.10;;
76576;SDS011;65441;44.748;37.600;2023-06-22T12:59:54;11.15;;;3.08;;
76576;SDS011;65441;44.748;37.600;2023-06-22T13:02:27;5.90;;;2.72;;
76576;SDS011;65441;44.748;37.600;2023-06-22T13:04:58;9.10;;;2.95;;
76576;SDS011;65441;44.748;37.600;2023-06-22T13:07:30;9.30;;;2.95;;
76576;SDS011;65441;44.748;37.600;2023-06-22T13:10:01;7.05;;;2.90;;
76576;SDS011;65441;44.748;37.600;2023-06-22T13:12:32;7.47;;;3.17;;
76576;SDS011;65441;44.748;37.600;2023-06-22T13:15:07;6.53;;;2.80;;
76576;SDS011;65441;44.748;37.600;2023-06-22T13:17:42;8.63;;;2.70;;
76576;SDS011;65441;44.748;37.600;2023-06-22T13:20:20;6.35;;;3.25;;
76576;SDS011;65441;44.748;37.600;2023-06-22T13:22:57;10.23;;;3.10;;
76576;SDS011;65441;44.748;37.600;2023-06-22T13:25:34;7.43;;;3.20;;
76576;SDS011;65441;44.748;37.600;2023-06-22T13:28:09;9.20;;;2.70;;
76576;SDS011;65441;44.748;37.600;2023-06-22T13:30:40;6.65;;;3.28;;
76576;SDS011;65441;44.748;37.600;2023-06-22T13:33:17;7.15;;;2.90;;
76576;SDS011;65441;44.748;37.600;2023-06-22T13:37:00;5.95;;;2.90;;
76576;SDS011;65441;44.748;37.600;2023-06-22T13:39:19;9.40;;;2.97;;
76576;SDS011;65441;44.748;37.600;2023-06-22T13:41:53;9.55;;;2.97;;
76576;SDS011;65441;44.748;37.600;2023-06-22T13:44:33;7.90;;;2.97;;
76576;SDS011;65441;44.748;37.600;2023-06-22T13:47:20;8.05;;;2.60;;
76576;SDS011;65441;44.748;37.600;2023-06-22T13:50:14;7.68;;;2.83;;
76576;SDS011;65441;44.748;37.600;2023-06-22T13:52:53;9.80;;;3.30;;
76576;SDS011;65441;44.748;37.600;2023-06-22T13:55:24;5.95;;;2.72;;
76576;SDS011;65441;44.748;37.600;2023-06-22T13:57:56;10.40;;;2.92;;
76576;SDS011;65441;44.748;37.600;2023-06-22T14:00:40;7.47;;;3.22;;
76576;SDS011;65441;44.748;37.600;2023-06-22T14:03:35;9.45;;;3.05;;
76576;SDS011;65441;44.748;37.600;2023-06-22T14:06:08;7.50;;;2.95;;
76576;SDS011;65441;44.748;37.600;2023-06-22T14:08:40;6.78;;;2.80;;
76576;SDS011;65441;44.748;37.600;2023-06-22T14:11:12;8.75;;;2.70;;
76576;SDS011;65441;44.748;37.600;2023-06-22T14:13:47;7.18;;;2.95;;
76576;SDS011;65441;44.748;37.600;2023-06-22T14:16:21;8.25;;;2.92;;
76576;SDS011;65441;44.748;37.600;2023-06-22T14:19:00;6.47;;;2.80;;
76576;SDS011;65441;44.748;37.600;2023-06-22T14:21:39;6.07;;;2.92;;
76576;SDS011;65441;44.748;37.600;2023-06-22T14:24:09;7.75;;;2.60;;
76576;SDS011;65441;44.748;37.600;2023-06-22T14:26:41;6.85;;;2.75;;
76576;SDS011;65441;44.748;37.600;2023-06-22T14:29:18;7.72;;;2.65;;
76576;SDS011;65441;44.748;37.600;2023-06-22T14:31:53;8.77;;;2.60;;
76576;SDS011;65441;44.748;37.600;2023-06-22T14:34:31;6.15;;;2.60;;
76576;SDS011;65441;44.748;37.600;2023-06-22T14:37:03;8.90;;;2.95;;
76576;SDS011;65441;44.748;37.600;2023-06-22T14:39:32;10.57;;;3.40;;
76576;SDS011;65441;44.748;37.600;2023-06-22T14:42:13;8.70;;;2.78;;
76576;SDS011;65441;44.748;37.600;2023-06-22T14:44:47;7.43;;;2.63;;
76576;SDS011;65441;44.748;37.600;2023-06-22T14:47:23;10.35;;;2.80;;
76576;SDS011;65441;44.748;37.600;2023-06-22T14:50:09;8.23;;;2.70;;
76576;SDS011;65441;44.748;37.600;2023-06-22T14:52:48;5.55;;;2.50;;
76576;SDS011;65441;44.748;37.600;2023-06-22T14:55:26;7.32;;;2.70;;
76576;SDS011;65441;44.748;37.600;2023-06-22T14:58:13;6.43;;;2.70;;
76576;SDS011;65441;44.748;37.600;2023-06-22T15:00:46;7.28;;;2.75;;
76576;SDS011;65441;44.748;37.600;2023-06-22T15:03:18;8.85;;;3.08;;
76576;SDS011;65441;44.748;37.600;2023-06-22T15:05:56;8.88;;;2.83;;
76576;SDS011;65441;44.748;37.600;2023-06-22T15:08:34;9.23;;;2.63;;
76576;SDS011;65441;44.748;37.600;2023-06-22T15:11:13;10.38;;;2.75;;
76576;SDS011;65441;44.748;37.600;2023-06-22T15:13:48;7.22;;;3.05;;
76576;SDS011;65441;44.748;37.600;2023-06-22T15:16:22;7.10;;;2.70;;
76576;SDS011;65441;44.748;37.600;2023-06-22T15:18:53;7.03;;;2.38;;
76576;SDS011;65441;44.748;37.600;2023-06-22T15:23:58;5.50;;;2.30;;
76576;SDS011;65441;44.748;37.600;2023-06-22T15:26:31;13.27;;;2.85;;
76576;SDS011;65441;44.748;37.600;2023-06-22T15:29:03;6.80;;;2.60;;
76576;SDS011;65441;44.748;37.600;2023-06-22T15:31:34;8.73;;;2.42;;
76576;SDS011;65441;44.748;37.600;2023-06-22T15:34:13;8.27;;;2.80;;
76576;SDS011;65441;44.748;37.600;2023-06-22T15:36:45;6.07;;;2.58;;
76576;SDS011;65441;44.748;37.600;2023-06-22T15:39:18;11.52;;;2.80;;
76576;SDS011;65441;44.748;37.600;2023-06-22T15:41:51;6.68;;;2.35;;
76576;SDS011;65441;44.748;37.600;2023-06-22T15:44:21;7.03;;;2.83;;
76576;SDS011;65441;44.748;37.600;2023-06-22T15:46:53;10.93;;;2.85;;
76576;SDS011;65441;44.748;37.600;2023-06-22T15:49:29;8.18;;;2.13;;
76576;SDS011;65441;44.748;37.600;2023-06-22T15:51:58;5.45;;;2.25;;
76576;SDS011;65441;44.748;37.600;2023-06-22T15:54:29;9.68;;;2.50;;
76576;SDS011;65441;44.748;37.600;2023-06-22T15:57:01;10.20;;;2.75;;
76576;SDS011;65441;44.748;37.600;2023-06-22T15:59:36;14.27;;;2.60;;
76576;SDS011;65441;44.748;37.600;2023-06-22T16:02:08;13.23;;;2.78;;
76576;SDS011;65441;44.748;37.600;2023-06-22T16:04:43;16.02;;;2.75;;
76576;SDS011;65441;44.748;37.600;2023-06-22T16:07:14;11.45;;;2.80;;
76576;SDS011;65441;44.748;37.600;2023-06-22T16:09:46;12.35;;;2.70;;
76576;SDS011;65441;44.748;37.600;2023-06-22T16:12:14;8.48;;;2.40;;
76576;SDS011;65441;44.748;37.600;2023-06-22T16:14:55;6.78;;;2.20;;
76576;SDS011;65441;44.748;37.600;2023-06-22T16:17:26;5.80;;;2.40;;
76576;SDS011;65441;44.748;37.600;2023-06-22T16:19:57;6.13;;;2.47;;
76576;SDS011;65441;44.748;37.600;2023-06-22T16:22:26;10.20;;;2.72;;
76576;SDS011;65441;44.748;37.600;2023-06-22T16:24:58;8.90;;;2.65;;
76576;SDS011;65441;44.748;37.600;2023-06-22T16:27:30;16.88;;;3.92;;